sensor_id;sensor_type;location;lat;lon;timestamp;pressure;altitude;pressure_sealevel;temperature;humidity
22753;BME280;11543;43.144;24.684;2024-01-25T00:00:20;98980.97;;;7.84;64.63
22753;BME280;11543;43.144;24.684;2024-01-25T00:02:46;98973.13;;;7.92;64.51
22753;BME280;11543;43.144;24.684;2024-01-25T00:05:12;98970.09;;;8.07;64.21
22753;BME280;11543;43.144;24.684;2024-01-25T00:07:50;98980.41;;;8.30;63.78
22753;BME280;11543;43.144;24.684;2024-01-25T00:10:16;99002.31;;;8.55;63.65
22753;BME280;11543;43.144;24.684;2024-01-25T00:12:43;98988.22;;;8.62;63.99
22753;BME280;11543;43.144;24.684;2024-01-25T00:15:12;98999.50;;;8.66;64.65
22753;BME280;11543;43.144;24.684;2024-01-25T00:17:37;99030.50;;;8.78;65.04
22753;BME280;11543;43.144;24.684;2024-01-25T00:20:04;99039.81;;;8.84;65.81
22753;BME280;11543;43.144;24.684;2024-01-25T00:22:30;99023.75;;;8.74;65.70
22753;BME280;11543;43.144;24.684;2024-01-25T00:24:57;99018.13;;;8.77;66.42
22753;BME280;11543;43.144;24.684;2024-01-25T00:27:23;99014.88;;;8.83;67.31
22753;BME280;11543;43.144;24.684;2024-01-25T00:29:48;98986.44;;;8.73;67.61
22753;BME280;11543;43.144;24.684;2024-01-25T00:32:14;99031.09;;;8.91;67.93
22753;BME280;11543;43.144;24.684;2024-01-25T00:34:40;99001.09;;;8.98;68.89
22753;BME280;11543;43.144;24.684;2024-01-25T00:37:06;98992.78;;;9.01;69.02
22753;BME280;11543;43.144;24.684;2024-01-25T00:39:31;99000.94;;;9.09;69.45
22753;BME280;11543;43.144;24.684;2024-01-25T00:42:03;99014.47;;;9.17;69.62
22753;BME280;11543;43.144;24.684;2024-01-25T00:44:30;99019.53;;;9.30;70.02
22753;BME280;11543;43.144;24.684;2024-01-25T00:46:56;99008.25;;;9.26;70.51
22753;BME280;11543;43.144;24.684;2024-01-25T00:49:22;99011.19;;;9.33;71.08
22753;BME280;11543;43.144;24.684;2024-01-25T00:51:48;99016.97;;;9.47;71.65
22753;BME280;11543;43.144;24.684;2024-01-25T00:54:15;99015.56;;;9.43;71.44
22753;BME280;11543;43.144;24.684;2024-01-25T00:56:41;99025.53;;;9.51;71.61
22753;BME280;11543;43.144;24.684;2024-01-25T00:59:07;99006.78;;;9.51;71.60
22753;BME280;11543;43.144;24.684;2024-01-25T01:01:32;99000.03;;;9.66;71.94
22753;BME280;11543;43.144;24.684;2024-01-25T01:03:58;99010.41;;;9.79;71.85
22753;BME280;11543;43.144;24.684;2024-01-25T01:06:25;99021.66;;;9.92;71.53
22753;BME280;11543;43.144;24.684;2024-01-25T01:08:51;99016.50;;;10.08;71.28
22753;BME280;11543;43.144;24.684;2024-01-25T01:11:17;98978.19;;;9.98;71.44
22753;BME280;11543;43.144;24.684;2024-01-25T01:13:42;98992.38;;;10.08;71.27
22753;BME280;11543;43.144;24.684;2024-01-25T01:16:08;98990.25;;;10.12;71.07
22753;BME280;11543;43.144;24.684;2024-01-25T01:18:35;98992.75;;;10.23;70.14
22753;BME280;11543;43.144;24.684;2024-01-25T01:21:01;98995.09;;;10.36;70.35
22753;BME280;11543;43.144;24.684;2024-01-25T01:23:26;98956.31;;;10.30;69.96
22753;BME280;11543;43.144;24.684;2024-01-25T01:25:52;98952.88;;;10.38;69.26
22753;BME280;11543;43.144;24.684;2024-01-25T01:28:17;98917.91;;;10.30;68.58
22753;BME280;11543;43.144;24.684;2024-01-25T01:30:43;98931.56;;;10.36;68.88
22753;BME280;11543;43.144;24.684;2024-01-25T01:33:09;98908.88;;;10.31;68.44
22753;BME280;11543;43.144;24.684;2024-01-25T01:35:35;98924.56;;;10.53;67.81
22753;BME280;11543;43.144;24.684;2024-01-25T01:38:00;98945.41;;;10.59;67.23
22753;BME280;11543;43.144;24.684;2024-01-25T01:40:26;98930.00;;;10.61;67.17
22753;BME280;11543;43.144;24.684;2024-01-25T01:42:51;98932.69;;;10.61;66.69
22753;BME280;11543;43.144;24.684;2024-01-25T01:45:16;98930.69;;;10.63;66.39
22753;BME280;11543;43.144;24.684;2024-01-25T01:47:42;98954.31;;;10.77;66.14
22753;BME280;11543;43.144;24.684;2024-01-25T01:50:09;98941.28;;;10.82;66.25
22753;BME280;11543;43.144;24.684;2024-01-25T01:52:36;98932.22;;;10.83;65.71
22753;BME280;11543;43.144;24.684;2024-01-25T01:55:02;98924.78;;;10.77;65.34
22753;BME280;11543;43.144;24.684;2024-01-25T01:57:28;98930.53;;;10.82;65.68
22753;BME280;11543;43.144;24.684;2024-01-25T01:59:53;98944.31;;;10.88;65.46
22753;BME280;11543;43.144;24.684;2024-01-25T02:02:19;98919.66;;;10.66;65.07
22753;BME280;11543;43.144;24.684;2024-01-25T02:04:44;98916.97;;;10.66;65.44
22753;BME280;11543;43.144;24.684;2024-01-25T02:07:11;98920.72;;;10.73;65.29
22753;BME280;11543;43.144;24.684;2024-01-25T02:09:36;98932.06;;;10.67;65.33
22753;BME280;11543;43.144;24.684;2024-01-25T02:12:02;98947.56;;;10.73;65.31
22753;BME280;11543;43.144;24.684;2024-01-25T02:14:28;98934.00;;;10.57;65.49
22753;BME280;11543;43.144;24.684;2024-01-25T02:16:53;98968.41;;;10.79;65.22
22753;BME280;11543;43.144;24.684;2024-01-25T02:19:19;98964.81;;;10.71;65.26
22753;BME280;11543;43.144;24.684;2024-01-25T02:21:44;98960.22;;;10.63;65.39
22753;BME280;11543;43.144;24.684;2024-01-25T02:24:10;98938.59;;;10.47;65.22
22753;BME280;11543;43.144;24.684;2024-01-25T02:26:35;98975.53;;;10.71;65.22
22753;BME280;11543;43.144;24.684;2024-01-25T02:29:01;98944.63;;;10.49;65.51
22753;BME280;11543;43.144;24.684;2024-01-25T02:31:28;98944.94;;;10.46;65.56
22753;BME280;11543;43.144;24.684;2024-01-25T02:33:53;98953.91;;;10.55;65.78
22753;BME280;11543;43.144;24.684;2024-01-25T02:36:22;98937.19;;;10.43;65.43
22753;BME280;11543;43.144;24.684;2024-01-25T02:38:47;98932.56;;;10.35;65.53
22753;BME280;11543;43.144;24.684;2024-01-25T02:41:13;98948.63;;;10.45;65.16
22753;BME280;11543;43.144;24.684;2024-01-25T02:43:38;98947.63;;;10.46;65.17
22753;BME280;11543;43.144;24.684;2024-01-25T02:46:04;98917.91;;;10.30;64.75
22753;BME280;11543;43.144;24.684;2024-01-25T02:48:30;98913.25;;;10.32;65.32
22753;BME280;11543;43.144;24.684;2024-01-25T02:50:55;98930.31;;;10.40;65.13
22753;BME280;11543;43.144;24.684;2024-01-25T02:53:20;98947.72;;;10.54;65.17
22753;BME280;11543;43.144;24.684;2024-01-25T02:55:46;98939.88;;;10.43;65.17
22753;BME280;11543;43.144;24.684;2024-01-25T02:58:11;98924.78;;;10.42;64.33
22753;BME280;11543;43.144;24.684;2024-01-25T03:00:37;98932.53;;;10.45;64.12
22753;BME280;11543;43.144;24.684;2024-01-25T03:03:03;98935.91;;;10.47;64.63
22753;BME280;11543;43.144;24.684;2024-01-25T03:05:28;98937.59;;;10.48;63.54
22753;BME280;11543;43.144;24.684;2024-01-25T03:07:54;98955.84;;;10.62;63.35
22753;BME280;11543;43.144;24.684;2024-01-25T03:10:19;98957.22;;;10.66;62.97
22753;BME280;11543;43.144;24.684;2024-01-25T03:12:45;98954.53;;;10.66;62.97
22753;BME280;11543;43.144;24.684;2024-01-25T03:15:11;98946.47;;;10.66;63.02
22753;BME280;11543;43.144;24.684;2024-01-25T03:17:36;98962.88;;;10.63;63.47
22753;BME280;11543;43.144;24.684;2024-01-25T03:20:02;98953.53;;;10.67;63.16
22753;BME280;11543;43.144;24.684;2024-01-25T03:22:28;98923.19;;;10.49;63.19
22753;BME280;11543;43.144;24.684;2024-01-25T03:24:53;98950.84;;;10.67;63.35
22753;BME280;11543;43.144;24.684;2024-01-25T03:27:19;98919.97;;;10.45;62.84
22753;BME280;11543;43.144;24.684;2024-01-25T03:29:44;98942.66;;;10.51;62.78
22753;BME280;11543;43.144;24.684;2024-01-25T03:32:10;98952.78;;;10.57;62.96
22753;BME280;11543;43.144;24.684;2024-01-25T03:34:36;98952.78;;;10.57;63.39
22753;BME280;11543;43.144;24.684;2024-01-25T03:37:01;98927.31;;;10.43;62.60
22753;BME280;11543;43.144;24.684;2024-01-25T03:39:27;98942.94;;;10.48;62.44
22753;BME280;11543;43.144;24.684;2024-01-25T03:41:52;98953.06;;;10.54;62.57
22753;BME280;11543;43.144;24.684;2024-01-25T03:44:18;98935.22;;;10.45;62.81
22753;BME280;11543;43.144;24.684;2024-01-25T03:46:43;98939.56;;;10.46;63.56
22753;BME280;11543;43.144;24.684;2024-01-25T03:49:09;98922.97;;;10.33;63.36
22753;BME280;11543;43.144;24.684;2024-01-25T03:51:34;98927.84;;;10.19;62.58
22753;BME280;11543;43.144;24.684;2024-01-25T03:54:00;98948.94;;;10.42;62.84
22753;BME280;11543;43.144;24.684;2024-01-25T03:56:25;98908.09;;;10.20;62.54
22753;BME280;11543;43.144;24.684;2024-01-25T03:58:52;98935.91;;;10.47;63.12
22753;BME280;11543;43.144;24.684;2024-01-25T04:01:17;98911.19;;;10.26;62.98
22753;BME280;11543;43.144;24.684;2024-01-25T04:03:43;98926.97;;;10.29;62.99
22753;BME280;11543;43.144;24.684;2024-01-25T04:06:08;98908.38;;;10.17;63.06
22753;BME280;11543;43.144;24.684;2024-01-25T04:08:34;98929.34;;;10.32;63.35
22753;BME280;11543;43.144;24.684;2024-01-25T04:10:59;98937.09;;;10.35;63.27
22753;BME280;11543;43.144;24.684;2024-01-25T04:13:24;98926.72;;;10.22;63.49
22753;BME280;11543;43.144;24.684;2024-01-25T04:15:50;98955.28;;;10.41;63.44
22753;BME280;11543;43.144;24.684;2024-01-25T04:18:16;98951.50;;;10.34;63.14
22753;BME280;11543;43.144;24.684;2024-01-25T04:20:42;98938.38;;;10.31;63.65
22753;BME280;11543;43.144;24.684;2024-01-25T04:23:08;98902.22;;;10.07;63.63
22753;BME280;11543;43.144;24.684;2024-01-25T04:25:33;98913.25;;;10.04;62.76
22753;BME280;11543;43.144;24.684;2024-01-25T04:27:59;98937.19;;;10.15;62.80
22753;BME280;11543;43.144;24.684;2024-01-25T04:30:25;98936.59;;;10.21;62.71
22753;BME280;11543;43.144;24.684;2024-01-25T04:32:51;98979.41;;;10.41;63.49
22753;BME280;11543;43.144;24.684;2024-01-25T04:35:16;98956.75;;;10.26;62.72
22753;BME280;11543;43.144;24.684;2024-01-25T04:37:41;98974.78;;;10.33;63.10
22753;BME280;11543;43.144;24.684;2024-01-25T04:40:07;98966.50;;;10.27;62.35
22753;BME280;11543;43.144;24.684;2024-01-25T04:42:33;98968.19;;;10.28;62.49
22753;BME280;11543;43.144;24.684;2024-01-25T04:44:58;98985.66;;;10.32;62.20
22753;BME280;11543;43.144;24.684;2024-01-25T04:47:24;98971.84;;;10.27;61.88
22753;BME280;11543;43.144;24.684;2024-01-25T04:49:49;98977.63;;;10.32;62.73
22753;BME280;11543;43.144;24.684;2024-01-25T04:52:15;98967.34;;;10.17;62.11
22753;BME280;11543;43.144;24.684;2024-01-25T04:54:40;98967.34;;;10.17;62.57
22753;BME280;11543;43.144;24.684;2024-01-25T04:57:06;98987.41;;;10.13;62.50
22753;BME280;11543;43.144;24.684;2024-01-25T04:59:35;98971.34;;;10.13;62.73
22753;BME280;11543;43.144;24.684;2024-01-25T05:02:01;98963.44;;;10.12;62.75
22753;BME280;11543;43.144;24.684;2024-01-25T05:04:28;98997.28;;;10.23;62.33
22753;BME280;11543;43.144;24.684;2024-01-25T05:06:54;98990.78;;;10.15;62.02
22753;BME280;11543;43.144;24.684;2024-01-25T05:09:20;99010.94;;;10.19;62.20
22753;BME280;11543;43.144;24.684;2024-01-25T05:11:46;99011.53;;;10.23;62.23
22753;BME280;11543;43.144;24.684;2024-01-25T05:14:11;99015.63;;;10.17;62.03
22753;BME280;11543;43.144;24.684;2024-01-25T05:16:37;99015.38;;;10.11;61.99
22753;BME280;11543;43.144;24.684;2024-01-25T05:19:02;99033.97;;;10.22;62.26
22753;BME280;11543;43.144;24.684;2024-01-25T05:21:28;99008.34;;;10.00;62.36
22753;BME280;11543;43.144;24.684;2024-01-25T05:23:53;99027.63;;;10.13;62.09
22753;BME280;11543;43.144;24.684;2024-01-25T05:26:19;99030.31;;;10.13;62.28
22753;BME280;11543;43.144;24.684;2024-01-25T05:28:45;99030.59;;;10.10;61.96
22753;BME280;11543;43.144;24.684;2024-01-25T05:31:14;99032.06;;;9.95;62.52
22753;BME280;11543;43.144;24.684;2024-01-25T05:33:40;99054.72;;;10.10;62.31
22753;BME280;11543;43.144;24.684;2024-01-25T05:36:06;99042.41;;;9.90;62.34
22753;BME280;11543;43.144;24.684;2024-01-25T05:38:31;99040.44;;;9.82;62.76
22753;BME280;11543;43.144;24.684;2024-01-25T05:40:57;99039.59;;;9.82;62.20
22753;BME280;11543;43.144;24.684;2024-01-25T05:43:23;99052.00;;;9.83;63.31
22753;BME280;11543;43.144;24.684;2024-01-25T05:45:48;99053.88;;;9.73;62.38
22753;BME280;11543;43.144;24.684;2024-01-25T05:48:14;99050.91;;;9.76;62.67
22753;BME280;11543;43.144;24.684;2024-01-25T05:50:40;99035.28;;;9.62;62.44
22753;BME280;11543;43.144;24.684;2024-01-25T05:53:06;99059.22;;;9.73;62.91
22753;BME280;11543;43.144;24.684;2024-01-25T05:55:31;99046.00;;;9.62;62.84
22753;BME280;11543;43.144;24.684;2024-01-25T05:57:58;99022.31;;;9.47;62.34
22753;BME280;11543;43.144;24.684;2024-01-25T06:00:23;99030.75;;;9.52;62.22
22753;BME280;11543;43.144;24.684;2024-01-25T06:02:49;99046.81;;;9.52;62.80
22753;BME280;11543;43.144;24.684;2024-01-25T06:05:15;99052.47;;;9.49;62.57
22753;BME280;11543;43.144;24.684;2024-01-25T06:07:40;99038.38;;;9.47;62.69
22753;BME280;11543;43.144;24.684;2024-01-25T06:10:06;99050.78;;;9.58;62.46
22753;BME280;11543;43.144;24.684;2024-01-25T06:12:32;99039.94;;;9.60;61.88
22753;BME280;11543;43.144;24.684;2024-01-25T06:14:58;99006.53;;;9.44;62.28
22753;BME280;11543;43.144;24.684;2024-01-25T06:17:23;99042.19;;;9.64;62.33
22753;BME280;11543;43.144;24.684;2024-01-25T06:19:50;99034.16;;;9.54;62.01
22753;BME280;11543;43.144;24.684;2024-01-25T06:22:15;99057.13;;;9.67;62.15
22753;BME280;11543;43.144;24.684;2024-01-25T06:24:42;99050.22;;;9.64;62.22
22753;BME280;11543;43.144;24.684;2024-01-25T06:27:09;99056.13;;;9.68;62.11
22753;BME280;11543;43.144;24.684;2024-01-25T06:29:34;99025.41;;;9.52;62.37
22753;BME280;11543;43.144;24.684;2024-01-25T06:32:00;99035.56;;;9.58;61.77
22753;BME280;11543;43.144;24.684;2024-01-25T06:34:25;99030.22;;;9.58;61.63
22753;BME280;11543;43.144;24.684;2024-01-25T06:36:51;99007.94;;;9.48;61.75
22753;BME280;11543;43.144;24.684;2024-01-25T06:39:18;99023.03;;;9.59;61.65
22753;BME280;11543;43.144;24.684;2024-01-25T06:41:43;99014.13;;;9.58;61.33
22753;BME280;11543;43.144;24.684;2024-01-25T06:44:09;99050.19;;;9.74;61.59
22753;BME280;11543;43.144;24.684;2024-01-25T06:46:35;99043.44;;;9.70;60.44
22753;BME280;11543;43.144;24.684;2024-01-25T06:49:01;99056.09;;;9.87;61.44
22753;BME280;11543;43.144;24.684;2024-01-25T06:51:28;99035.22;;;9.81;61.55
22753;BME280;11543;43.144;24.684;2024-01-25T06:53:55;99057.88;;;9.96;61.14
22753;BME280;11543;43.144;24.684;2024-01-25T06:56:25;99063.94;;;9.98;61.08
22753;BME280;11543;43.144;24.684;2024-01-25T06:58:50;99053.81;;;9.92;60.91
22753;BME280;11543;43.144;24.684;2024-01-25T07:01:22;99070.00;;;10.00;60.43
22753;BME280;11543;43.144;24.684;2024-01-25T07:03:48;99069.88;;;10.02;60.36
22753;BME280;11543;43.144;24.684;2024-01-25T07:06:19;99066.22;;;9.93;59.55
22753;BME280;11543;43.144;24.684;2024-01-25T07:08:45;99073.25;;;10.04;59.80
22753;BME280;11543;43.144;24.684;2024-01-25T07:11:11;99079.44;;;10.04;59.75
22753;BME280;11543;43.144;24.684;2024-01-25T07:13:37;99076.03;;;10.12;59.83
22753;BME280;11543;43.144;24.684;2024-01-25T07:16:03;99075.47;;;10.08;59.46
22753;BME280;11543;43.144;24.684;2024-01-25T07:18:29;99075.47;;;10.08;59.17
22753;BME280;11543;43.144;24.684;2024-01-25T07:20:54;99081.25;;;10.13;58.65
22753;BME280;11543;43.144;24.684;2024-01-25T07:23:21;99086.31;;;10.16;59.96
22753;BME280;11543;43.144;24.684;2024-01-25T07:25:47;99083.34;;;10.19;59.46
22753;BME280;11543;43.144;24.684;2024-01-25T07:28:13;99089.00;;;10.16;58.44
22753;BME280;11543;43.144;24.684;2024-01-25T07:30:39;99098.97;;;10.34;59.17
22753;BME280;11543;43.144;24.684;2024-01-25T07:33:05;99066.44;;;10.09;57.69
22753;BME280;11543;43.144;24.684;2024-01-25T07:35:32;99085.88;;;10.31;57.74
22753;BME280;11543;43.144;24.684;2024-01-25T07:37:57;99076.44;;;10.27;58.79
22753;BME280;11543;43.144;24.684;2024-01-25T07:40:23;99083.09;;;10.23;57.08
22753;BME280;11543;43.144;24.684;2024-01-25T07:42:48;99094.31;;;10.36;57.27
22753;BME280;11543;43.144;24.684;2024-01-25T07:45:14;99105.34;;;10.33;57.19
22753;BME280;11543;43.144;24.684;2024-01-25T07:47:43;99120.28;;;10.45;57.05
22753;BME280;11543;43.144;24.684;2024-01-25T07:50:09;99103.06;;;10.38;56.56
22753;BME280;11543;43.144;24.684;2024-01-25T07:52:35;99127.03;;;10.49;56.13
22753;BME280;11543;43.144;24.684;2024-01-25T07:55:01;99104.50;;;10.42;56.82
22753;BME280;11543;43.144;24.684;2024-01-25T07:57:26;99133.50;;;10.56;56.53
22753;BME280;11543;43.144;24.684;2024-01-25T07:59:52;99100.28;;;10.30;56.00
22753;BME280;11543;43.144;24.684;2024-01-25T08:02:17;99123.97;;;10.44;55.77
22753;BME280;11543;43.144;24.684;2024-01-25T08:04:43;99122.78;;;10.56;57.09
22753;BME280;11543;43.144;24.684;2024-01-25T08:07:08;99113.78;;;10.38;56.28
22753;BME280;11543;43.144;24.684;2024-01-25T08:09:34;99135.78;;;10.51;55.67
22753;BME280;11543;43.144;24.684;2024-01-25T08:12:00;99134.50;;;10.55;56.64
22753;BME280;11543;43.144;24.684;2024-01-25T08:14:25;99143.47;;;10.73;55.83
22753;BME280;11543;43.144;24.684;2024-01-25T08:16:50;99097.94;;;10.54;56.30
22753;BME280;11543;43.144;24.684;2024-01-25T08:19:16;99096.50;;;10.60;55.58
22753;BME280;11543;43.144;24.684;2024-01-25T08:21:42;99111.56;;;10.70;55.49
22753;BME280;11543;43.144;24.684;2024-01-25T08:24:07;99105.50;;;10.68;55.15
22753;BME280;11543;43.144;24.684;2024-01-25T08:26:33;99109.16;;;10.67;54.53
22753;BME280;11543;43.144;24.684;2024-01-25T08:28:59;99108.88;;;10.70;55.22
22753;BME280;11543;43.144;24.684;2024-01-25T08:31:25;99091.38;;;10.66;54.77
22753;BME280;11543;43.144;24.684;2024-01-25T08:33:50;99090.28;;;10.59;54.26
22753;BME280;11543;43.144;24.684;2024-01-25T08:36:19;99098.38;;;10.77;56.41
22753;BME280;11543;43.144;24.684;2024-01-25T08:38:45;99102.06;;;10.76;56.41
22753;BME280;11543;43.144;24.684;2024-01-25T08:41:10;99098.63;;;10.83;55.70
22753;BME280;11543;43.144;24.684;2024-01-25T08:43:37;99100.00;;;10.88;55.38
22753;BME280;11543;43.144;24.684;2024-01-25T08:46:02;99093.00;;;10.77;53.66
22753;BME280;11543;43.144;24.684;2024-01-25T08:48:28;99107.28;;;10.77;54.05
22753;BME280;11543;43.144;24.684;2024-01-25T08:50:54;99088.78;;;10.74;53.83
22753;BME280;11543;43.144;24.684;2024-01-25T08:53:20;99096.38;;;10.79;54.27
22753;BME280;11543;43.144;24.684;2024-01-25T08:55:53;99080.81;;;10.82;56.44
22753;BME280;11543;43.144;24.684;2024-01-25T08:58:18;99103.09;;;10.93;55.24
22753;BME280;11543;43.144;24.684;2024-01-25T09:00:45;99102.00;;;10.85;54.37
22753;BME280;11543;43.144;24.684;2024-01-25T09:03:11;99106.91;;;10.90;53.54
22753;BME280;11543;43.144;24.684;2024-01-25T09:05:36;99085.88;;;10.68;53.96
22753;BME280;11543;43.144;24.684;2024-01-25T09:08:06;99076.19;;;10.57;54.31
22753;BME280;11543;43.144;24.684;2024-01-25T09:10:31;99117.00;;;10.78;54.34
22753;BME280;11543;43.144;24.684;2024-01-25T09:12:57;99107.47;;;10.66;54.73
22753;BME280;11543;43.144;24.684;2024-01-25T09:15:22;99083.53;;;10.55;55.17
22753;BME280;11543;43.144;24.684;2024-01-25T09:17:48;99097.44;;;10.68;55.43
22753;BME280;11543;43.144;24.684;2024-01-25T09:20:14;99068.13;;;10.57;54.36
22753;BME280;11543;43.144;24.684;2024-01-25T09:22:39;99090.97;;;10.89;55.46
22753;BME280;11543;43.144;24.684;2024-01-25T09:25:05;99115.91;;;10.99;55.58
22753;BME280;11543;43.144;24.684;2024-01-25T09:27:30;99067.63;;;10.71;54.98
22753;BME280;11543;43.144;24.684;2024-01-25T09:29:56;99093.72;;;10.97;55.28
22753;BME280;11543;43.144;24.684;2024-01-25T09:32:21;99098.50;;;11.03;55.44
22753;BME280;11543;43.144;24.684;2024-01-25T09:34:47;99113.09;;;11.18;55.83
22753;BME280;11543;43.144;24.684;2024-01-25T09:37:13;99084.47;;;11.09;55.09
22753;BME280;11543;43.144;24.684;2024-01-25T09:39:40;99086.91;;;11.20;54.42
22753;BME280;11543;43.144;24.684;2024-01-25T09:42:05;99098.66;;;11.19;54.73
22753;BME280;11543;43.144;24.684;2024-01-25T09:44:32;99091.59;;;11.18;54.21
22753;BME280;11543;43.144;24.684;2024-01-25T09:46:58;99083.25;;;11.21;55.54
22753;BME280;11543;43.144;24.684;2024-01-25T09:49:23;99082.19;;;11.32;53.75
22753;BME280;11543;43.144;24.684;2024-01-25T09:51:52;99046.72;;;11.10;53.67
22753;BME280;11543;43.144;24.684;2024-01-25T09:54:18;99072.28;;;11.32;53.75
22753;BME280;11543;43.144;24.684;2024-01-25T09:56:50;99083.72;;;11.34;53.94
22753;BME280;11543;43.144;24.684;2024-01-25T09:59:16;99072.81;;;11.36;53.55
22753;BME280;11543;43.144;24.684;2024-01-25T10:01:43;99050.81;;;11.32;54.29
22753;BME280;11543;43.144;24.684;2024-01-25T10:04:09;99028.00;;;11.18;53.18
22753;BME280;11543;43.144;24.684;2024-01-25T10:06:34;99050.81;;;11.32;52.53
22753;BME280;11543;43.144;24.684;2024-01-25T10:09:00;99042.38;;;11.27;53.73
22753;BME280;11543;43.144;24.684;2024-01-25T10:11:25;99042.06;;;11.30;52.67
22753;BME280;11543;43.144;24.684;2024-01-25T10:14:00;99013.34;;;11.13;52.34
22753;BME280;11543;43.144;24.684;2024-01-25T10:16:26;99021.47;;;11.21;52.36
22753;BME280;11543;43.144;24.684;2024-01-25T10:18:51;99046.50;;;11.39;53.68
22753;BME280;11543;43.144;24.684;2024-01-25T10:21:17;99038.91;;;11.35;52.51
22753;BME280;11543;43.144;24.684;2024-01-25T10:23:44;99012.50;;;11.30;54.02
22753;BME280;11543;43.144;24.684;2024-01-25T10:26:11;99001.81;;;11.38;53.32
22753;BME280;11543;43.144;24.684;2024-01-25T10:28:36;99015.50;;;11.27;52.45
22753;BME280;11543;43.144;24.684;2024-01-25T10:31:02;99024.06;;;11.48;53.42
22753;BME280;11543;43.144;24.684;2024-01-25T10:33:30;99020.38;;;11.49;53.51
22753;BME280;11543;43.144;24.684;2024-01-25T10:36:00;98991.19;;;11.29;53.36
22753;BME280;11543;43.144;24.684;2024-01-25T10:38:33;99016.38;;;11.54;53.40
22753;BME280;11543;43.144;24.684;2024-01-25T10:41:01;98999.50;;;11.43;52.94
22753;BME280;11543;43.144;24.684;2024-01-25T10:43:27;99006.25;;;11.47;52.92
22753;BME280;11543;43.144;24.684;2024-01-25T10:45:53;98999.16;;;11.38;53.25
22753;BME280;11543;43.144;24.684;2024-01-25T10:48:23;99001.19;;;11.44;53.80
22753;BME280;11543;43.144;24.684;2024-01-25T10:50:48;98983.41;;;11.43;53.66
22753;BME280;11543;43.144;24.684;2024-01-25T10:53:15;98994.16;;;11.43;52.70
22753;BME280;11543;43.144;24.684;2024-01-25T10:55:42;98972.66;;;11.43;52.83
22753;BME280;11543;43.144;24.684;2024-01-25T10:58:07;98982.03;;;11.39;51.48
22753;BME280;11543;43.144;24.684;2024-01-25T11:00:36;98983.41;;;11.43;52.71
22753;BME280;11543;43.144;24.684;2024-01-25T11:03:02;98963.22;;;11.39;52.06
22753;BME280;11543;43.144;24.684;2024-01-25T11:05:30;98937.53;;;11.19;51.47
22753;BME280;11543;43.144;24.684;2024-01-25T11:07:55;98968.91;;;11.36;51.94
22753;BME280;11543;43.144;24.684;2024-01-25T11:10:24;98980.03;;;11.41;52.43
22753;BME280;11543;43.144;24.684;2024-01-25T11:12:56;98953.47;;;11.38;52.55
22753;BME280;11543;43.144;24.684;2024-01-25T11:15:29;98952.94;;;11.35;52.05
22753;BME280;11543;43.144;24.684;2024-01-25T11:17:55;98969.06;;;11.35;52.35
22753;BME280;11543;43.144;24.684;2024-01-25T11:20:23;98968.53;;;11.31;51.68
22753;BME280;11543;43.144;24.684;2024-01-25T11:22:57;98949.66;;;11.23;51.88
22753;BME280;11543;43.144;24.684;2024-01-25T11:25:33;98950.97;;;11.19;51.29
22753;BME280;11543;43.144;24.684;2024-01-25T11:28:01;98954.59;;;11.10;51.72
22753;BME280;11543;43.144;24.684;2024-01-25T11:30:29;98960.38;;;11.23;51.87
22753;BME280;11543;43.144;24.684;2024-01-25T11:32:55;98961.78;;;11.27;52.26
22753;BME280;11543;43.144;24.684;2024-01-25T11:35:21;98956.09;;;11.30;52.08
22753;BME280;11543;43.144;24.684;2024-01-25T11:37:48;98956.00;;;11.22;51.54
22753;BME280;11543;43.144;24.684;2024-01-25T11:40:14;98949.41;;;11.34;52.44
22753;BME280;11543;43.144;24.684;2024-01-25T11:42:44;98935.91;;;11.26;51.62
22753;BME280;11543;43.144;24.684;2024-01-25T11:45:10;98951.63;;;11.39;52.57
22753;BME280;11543;43.144;24.684;2024-01-25T11:47:37;98953.84;;;11.43;52.12
22753;BME280;11543;43.144;24.684;2024-01-25T11:50:04;98944.41;;;11.39;52.14
22753;BME280;11543;43.144;24.684;2024-01-25T11:52:29;98953.69;;;11.45;51.64
22753;BME280;11543;43.144;24.684;2024-01-25T11:54:58;98959.97;;;11.54;53.06
22753;BME280;11543;43.144;24.684;2024-01-25T11:57:23;98941.72;;;11.39;52.49
22753;BME280;11543;43.144;24.684;2024-01-25T11:59:49;98932.84;;;11.39;52.09
22753;BME280;11543;43.144;24.684;2024-01-25T12:02:15;98939.03;;;11.39;51.90
22753;BME280;11543;43.144;24.684;2024-01-25T12:04:41;98922.56;;;11.34;53.25
22753;BME280;11543;43.144;24.684;2024-01-25T12:07:07;98914.88;;;11.39;53.21
22753;BME280;11543;43.144;24.684;2024-01-25T12:09:33;98888.81;;;11.32;53.28
22753;BME280;11543;43.144;24.684;2024-01-25T12:12:00;98915.88;;;11.38;53.38
22753;BME280;11543;43.144;24.684;2024-01-25T12:14:27;98884.47;;;11.39;53.92
22753;BME280;11543;43.144;24.684;2024-01-25T12:16:55;98892.06;;;11.43;53.23
22753;BME280;11543;43.144;24.684;2024-01-25T12:19:20;98928.81;;;11.69;53.65
22753;BME280;11543;43.144;24.684;2024-01-25T12:21:46;98905.91;;;11.57;53.04
22753;BME280;11543;43.144;24.684;2024-01-25T12:24:12;98905.53;;;11.52;53.15
22753;BME280;11543;43.144;24.684;2024-01-25T12:26:37;98919.06;;;11.68;53.82
22753;BME280;11543;43.144;24.684;2024-01-25T12:29:03;98891.38;;;11.41;52.57
22753;BME280;11543;43.144;24.684;2024-01-25T12:31:30;98873.00;;;11.29;52.29
22753;BME280;11543;43.144;24.684;2024-01-25T12:33:56;98899.19;;;11.61;52.47
22753;BME280;11543;43.144;24.684;2024-01-25T12:36:21;98878.16;;;11.48;52.89
22753;BME280;11543;43.144;24.684;2024-01-25T12:38:47;98878.47;;;11.45;53.42
22753;BME280;11543;43.144;24.684;2024-01-25T12:41:14;98874.41;;;11.41;52.28
22753;BME280;11543;43.144;24.684;2024-01-25T12:43:40;98896.84;;;11.58;52.87
22753;BME280;11543;43.144;24.684;2024-01-25T12:46:05;98892.16;;;11.60;51.43